Time;durP1;ratioP1;P1;durP2;ratioP2;P2;SDS_P1;SDS_P2;PMS_P1;PMS_P2;Temp;Humidity;BMP_temperature;BMP_pressure;BME280_temperature;BME280_humidity;BME280_pressure;Samples;Min_cycle;Max_cycle;Signal;HPM_P1;HPM_P2
2023/06/13 00:01:57;;;;;;;5.70;4.50;;;;;;;20.01;69.65;98816.22;5110695;28;20249;-77
2023/06/13 00:04:26;;;;;;;7.57;5.10;;;;;;;20.07;69.26;98812.00;5112654;28;20184;-78
2023/06/13 00:06:56;;;;;;;6.80;4.40;;;;;;;20.01;68.96;98818.91;5073547;28;20193;-77
2023/06/13 00:09:28;;;;;;;6.68;4.65;;;;;;;20.08;68.90;98819.94;5065591;28;20195;-77
2023/06/13 00:11:58;;;;;;;8.13;4.30;;;;;;;20.09;68.40;98829.69;5069408;28;20201;-77
2023/06/13 00:14:26;;;;;;;8.47;4.63;;;;;;;20.06;69.30;98831.84;5005404;28;20285;-77
2023/06/13 00:16:55;;;;;;;6.60;4.75;;;;;;;20.05;70.97;98828.31;5008546;28;20218;-77
2023/06/13 00:19:28;;;;;;;7.65;4.90;;;;;;;19.88;72.57;98823.91;5007307;28;20202;-77
2023/06/13 00:21:58;;;;;;;5.15;4.43;;;;;;;19.57;74.67;98832.59;5006395;28;20373;-77
2023/06/13 00:24:27;;;;;;;5.97;4.50;;;;;;;19.85;73.06;98830.47;5020586;28;20207;-77
2023/06/13 00:26:55;;;;;;;5.30;4.45;;;;;;;19.66;73.45;98826.22;5068841;28;20652;-77
2023/06/13 00:29:24;;;;;;;7.00;4.85;;;;;;;19.64;74.56;98830.09;5063302;28;20282;-77
2023/06/13 00:31:55;;;;;;;7.18;4.40;;;;;;;19.52;74.75;98817.94;5071578;28;20219;-77
2023/06/13 00:34:25;;;;;;;5.97;4.60;;;;;;;18.66;82.91;98826.94;5064476;28;20220;-78
2023/06/13 00:36:53;;;;;;;9.02;4.88;;;;;;;18.88;83.99;98828.22;5063990;28;20216;-77
2023/06/13 00:39:22;;;;;;;5.95;4.13;;;;;;;18.86;84.36;98827.56;5088998;28;20203;-77
2023/06/13 00:41:51;;;;;;;5.37;4.67;;;;;;;18.78;85.23;98827.50;5110399;28;20214;-77
2023/06/13 00:44:20;;;;;;;8.55;4.80;;;;;;;18.91;85.20;98829.75;5108988;28;20187;-77
2023/06/13 00:46:49;;;;;;;5.65;5.03;;;;;;;18.80;83.98;98828.16;5111165;28;20193;-77
2023/06/13 00:49:17;;;;;;;6.63;4.97;;;;;;;18.89;83.18;98840.63;5102228;28;20262;-77
2023/06/13 00:51:48;;;;;;;7.87;5.40;;;;;;;18.84;83.54;98833.09;5110760;28;20237;-77
2023/06/13 00:54:18;;;;;;;5.60;4.60;;;;;;;18.85;83.76;98831.25;5104442;28;20209;-77
2023/06/13 00:56:47;;;;;;;6.78;5.22;;;;;;;18.79;84.78;98832.69;5108699;28;20227;-77
2023/06/13 00:59:16;;;;;;;7.07;5.60;;;;;;;18.77;84.51;98828.50;5108578;28;20221;-78
2023/06/13 01:01:47;;;;;;;6.63;5.07;;;;;;;18.56;86.92;98829.69;5109975;28;20195;-76
2023/06/13 01:04:19;;;;;;;7.28;4.88;;;;;;;18.57;88.02;98833.19;5106291;28;20203;-77
2023/06/13 01:06:53;;;;;;;7.25;5.22;;;;;;;18.38;88.49;98833.41;5109544;28;20202;-77
2023/06/13 01:09:22;;;;;;;7.67;5.03;;;;;;;18.27;90.93;98826.44;5106017;28;20195;-77
2023/06/13 01:12:03;;;;;;;5.70;4.77;;;;;;;18.30;91.05;98829.63;5107347;28;20203;-76
2023/06/13 01:14:42;;;;;;;6.57;5.00;;;;;;;18.32;90.50;98840.22;5111291;28;20219;-77
2023/06/13 01:17:15;;;;;;;7.17;5.47;;;;;;;18.25;90.31;98834.66;5090637;28;20219;-77
2023/06/13 01:19:53;;;;;;;6.45;4.80;;;;;;;18.42;89.99;98830.22;5088640;28;20200;-77
2023/06/13 01:22:38;;;;;;;6.23;4.87;;;;;;;18.50;89.11;98837.50;5082320;28;20195;-77
2023/06/13 01:25:13;;;;;;;5.70;5.00;;;;;;;18.34;90.23;98843.59;5089197;28;20211;-77
2023/06/13 01:27:49;;;;;;;6.32;4.70;;;;;;;18.05;92.27;98838.50;5087458;28;20191;-77
2023/06/13 01:30:20;;;;;;;8.33;5.43;;;;;;;17.96;93.96;98842.09;5085294;28;20278;-77
2023/06/13 01:32:50;;;;;;;7.70;5.10;;;;;;;17.93;94.11;98840.53;5086303;28;20188;-77
2023/06/13 01:35:19;;;;;;;9.35;5.55;;;;;;;17.93;95.24;98835.16;5093964;28;20227;-77
2023/06/13 01:37:49;;;;;;;8.33;5.17;;;;;;;17.89;95.40;98836.47;5112757;28;20215;-77
2023/06/13 01:40:17;;;;;;;6.70;4.57;;;;;;;17.86;95.55;98833.28;5086613;28;20568;-77
2023/06/13 01:42:48;;;;;;;6.33;4.93;;;;;;;17.78;95.86;98834.03;5113955;28;20191;-77
2023/06/13 01:45:18;;;;;;;6.77;5.00;;;;;;;17.80;95.82;98837.41;5104833;28;20255;-77
2023/06/13 01:47:54;;;;;;;7.37;5.10;;;;;;;17.98;95.05;98842.75;5111584;28;20666;-77
2023/06/13 01:50:30;;;;;;;7.47;5.23;;;;;;;17.44;98.66;98847.16;5104102;28;20199;-77
2023/06/13 01:53:06;;;;;;;6.70;5.37;;;;;;;17.59;98.40;98839.47;5092276;28;20201;-77
2023/06/13 01:55:43;;;;;;;6.20;5.17;;;;;;;17.28;100.00;98842.47;5111490;28;20194;-77
2023/06/13 01:58:19;;;;;;;7.60;5.10;;;;;;;17.63;98.71;98849.72;5112791;28;20224;-77
2023/06/13 02:00:55;;;;;;;7.23;5.33;;;;;;;17.49;99.11;98844.91;5109160;28;20204;-77
2023/06/13 02:03:24;;;;;;;9.23;5.03;;;;;;;17.44;98.02;98845.31;5112732;28;20280;-77
2023/06/13 02:05:56;;;;;;;8.13;5.63;;;;;;;17.53;98.73;98845.44;5110934;28;20194;-77
2023/06/13 02:08:26;;;;;;;5.77;5.17;;;;;;;16.93;100.00;98839.66;5114168;28;20194;-77
2023/06/13 02:10:56;;;;;;;7.20;5.07;;;;;;;17.21;100.00;98840.53;5115531;28;20213;-77
2023/06/13 02:13:26;;;;;;;9.40;5.30;;;;;;;16.34;100.00;98846.94;5110651;28;20672;-77
2023/06/13 02:15:54;;;;;;;8.57;5.60;;;;;;;16.75;100.00;98837.72;5116975;27;20210;-77
2023/06/13 02:18:23;;;;;;;7.73;5.53;;;;;;;16.87;100.00;98835.72;5114961;28;20225;-77
2023/06/13 02:20:51;;;;;;;8.00;5.40;;;;;;;16.79;100.00;98840.94;5114196;28;20222;-77
2023/06/13 02:23:20;;;;;;;8.10;5.17;;;;;;;16.69;100.00;98837.47;5111534;28;20225;-77
2023/06/13 02:25:49;;;;;;;6.87;5.37;;;;;;;16.79;100.00;98835.59;5112268;27;20191;-77
2023/06/13 02:28:22;;;;;;;8.37;5.13;;;;;;;16.90;100.00;98837.28;5111700;28;20328;-77
2023/06/13 02:30:52;;;;;;;7.50;5.33;;;;;;;16.88;100.00;98843.59;5114317;28;20195;-77
2023/06/13 02:33:20;;;;;;;8.00;5.27;;;;;;;16.93;100.00;98837.81;5113814;28;20199;-77
2023/06/13 02:35:48;;;;;;;7.23;5.50;;;;;;;16.92;100.00;98830.78;5114066;27;20230;-77
2023/06/13 02:38:18;;;;;;;7.27;5.20;;;;;;;16.94;100.00;98836.84;5113253;28;20254;-77
2023/06/13 02:40:47;;;;;;;6.77;5.43;;;;;;;16.87;100.00;98838.41;5107825;28;20322;-77
2023/06/13 02:43:16;;;;;;;9.57;5.67;;;;;;;16.93;100.00;98834.31;5114904;28;20199;-77
2023/06/13 02:45:44;;;;;;;8.13;5.73;;;;;;;16.85;100.00;98843.06;5109173;28;20318;-77
2023/06/13 02:48:15;;;;;;;6.93;5.50;;;;;;;16.65;100.00;98831.53;5110506;28;20233;-77
2023/06/13 02:50:44;;;;;;;7.40;5.63;;;;;;;16.70;100.00;98836.50;5113074;28;20220;-77
2023/06/13 02:53:12;;;;;;;6.20;5.60;;;;;;;16.68;100.00;98838.41;5109422;28;20198;-77
2023/06/13 02:55:46;;;;;;;6.77;5.10;;;;;;;16.73;100.00;98834.38;5111605;28;20229;-77
2023/06/13 02:58:14;;;;;;;8.17;5.50;;;;;;;16.65;100.00;98834.22;5053092;28;20220;-77
2023/06/13 03:00:43;;;;;;;6.47;5.50;;;;;;;16.54;100.00;98832.56;5044796;28;20197;-76
2023/06/13 03:03:12;;;;;;;6.90;5.10;;;;;;;16.62;100.00;98844.38;5046450;28;20333;-77
2023/06/13 03:05:42;;;;;;;10.70;5.80;;;;;;;16.50;100.00;98839.19;5043537;28;20751;-77
2023/06/13 03:08:11;;;;;;;6.97;5.53;;;;;;;16.36;100.00;98834.28;4990287;28;20764;-77
2023/06/13 03:10:41;;;;;;;9.13;5.43;;;;;;;16.32;100.00;98838.22;4990200;28;20202;-78
2023/06/13 03:13:09;;;;;;;7.10;5.63;;;;;;;16.48;100.00;98842.97;4984710;28;20199;-77
2023/06/13 03:15:38;;;;;;;6.53;5.37;;;;;;;16.29;100.00;98838.47;4997549;28;20197;-77
2023/06/13 03:18:06;;;;;;;7.60;5.50;;;;;;;16.24;100.00;98835.41;5070469;28;20216;-77
2023/06/13 03:20:37;;;;;;;7.80;5.67;;;;;;;16.41;100.00;98834.69;5071982;28;20200;-77
2023/06/13 03:23:07;;;;;;;6.87;5.37;;;;;;;16.39;100.00;98835.81;5066528;28;20295;-77
2023/06/13 03:25:36;;;;;;;8.27;5.83;;;;;;;16.27;100.00;98835.97;5075110;28;20183;-77
2023/06/13 03:28:05;;;;;;;7.97;5.80;;;;;;;16.13;100.00;98832.91;5109275;28;20694;-77
2023/06/13 03:30:34;;;;;;;8.80;6.10;;;;;;;16.12;100.00;98828.53;5115398;27;20278;-76
2023/06/13 03:33:03;;;;;;;6.97;6.07;;;;;;;16.05;100.00;98836.25;5109000;28;20195;-77
2023/06/13 03:35:32;;;;;;;6.33;5.33;;;;;;;16.27;100.00;98838.63;5106868;28;20241;-77
2023/06/13 03:38:00;;;;;;;7.77;5.63;;;;;;;16.01;100.00;98837.50;5113386;28;20271;-77
2023/06/13 03:40:32;;;;;;;8.87;5.90;;;;;;;15.98;100.00;98830.63;5065095;28;20192;-77
2023/06/13 03:43:02;;;;;;;7.80;5.90;;;;;;;15.97;100.00;98828.94;5067625;28;20291;-77
2023/06/13 03:45:31;;;;;;;7.70;6.00;;;;;;;15.97;100.00;98830.78;5069574;28;20214;-77
2023/06/13 03:48:00;;;;;;;9.73;6.03;;;;;;;15.91;100.00;98823.31;5073315;28;20199;-77
2023/06/13 03:50:28;;;;;;;10.50;5.93;;;;;;;15.91;100.00;98828.66;5071540;28;20192;-77
2023/06/13 03:52:57;;;;;;;7.13;6.07;;;;;;;15.86;100.00;98830.91;5069665;28;20192;-76
2023/06/13 03:55:26;;;;;;;9.43;6.17;;;;;;;15.68;100.00;98828.91;5066165;28;20200;-78
2023/06/13 03:57:57;;;;;;;9.30;5.43;;;;;;;15.80;100.00;98831.47;5077079;28;20221;-77
2023/06/13 04:00:26;;;;;;;7.73;5.97;;;;;;;15.72;100.00;98826.81;5093664;28;20195;-77
2023/06/13 04:02:55;;;;;;;8.90;6.03;;;;;;;15.93;100.00;98824.03;5092139;28;20334;-77
2023/06/13 04:05:25;;;;;;;9.67;6.10;;;;;;;16.02;100.00;98825.88;5090664;28;20211;-77
2023/06/13 04:07:54;;;;;;;9.00;5.80;;;;;;;15.94;100.00;98821.22;5082370;28;20265;-77
2023/06/13 04:10:24;;;;;;;9.03;6.07;;;;;;;15.94;100.00;98826.56;5085761;28;20215;-77
2023/06/13 04:12:52;;;;;;;8.30;5.83;;;;;;;15.86;100.00;98826.41;5084208;28;20204;-78
2023/06/13 04:15:23;;;;;;;8.40;5.67;;;;;;;15.94;100.00;98831.06;5086126;28;20203;-77
2023/06/13 04:17:52;;;;;;;11.13;5.57;;;;;;;16.08;100.00;98832.47;5088351;28;20261;-78
2023/06/13 04:20:23;;;;;;;7.97;5.20;;;;;;;16.22;100.00;98827.53;5088660;28;20187;-77
2023/06/13 04:22:54;;;;;;;6.20;5.60;;;;;;;16.26;100.00;98834.28;5108307;28;20211;-77
2023/06/13 04:25:24;;;;;;;7.90;5.30;;;;;;;16.07;100.00;98831.63;5103797;28;20195;-77
2023/06/13 04:27:53;;;;;;;7.47;5.37;;;;;;;16.18;100.00;98830.63;5108992;28;20830;-77
2023/06/13 04:30:24;;;;;;;8.50;5.70;;;;;;;16.19;100.00;98835.81;5106579;28;20219;-77
2023/06/13 04:32:52;;;;;;;8.57;5.30;;;;;;;16.39;100.00;98833.97;5114267;28;20202;-77
2023/06/13 04:35:22;;;;;;;7.77;5.63;;;;;;;16.40;100.00;98838.31;5107297;28;20227;-77
2023/06/13 04:37:52;;;;;;;8.17;5.60;;;;;;;16.39;100.00;98839.31;5113901;28;20219;-77
2023/06/13 04:40:31;;;;;;;7.17;5.43;;;;;;;16.39;100.00;98833.13;5109431;28;20645;-77
2023/06/13 04:43:03;;;;;;;8.03;5.80;;;;;;;16.67;100.00;98832.22;5111354;28;20260;-77
2023/06/13 04:45:36;;;;;;;9.37;6.00;;;;;;;16.70;100.00;98840.03;5110870;28;20191;-77
2023/06/13 04:48:10;;;;;;;8.80;5.23;;;;;;;16.71;100.00;98846.22;5105157;28;20293;-76
2023/06/13 04:50:40;;;;;;;9.67;5.23;;;;;;;16.84;100.00;98846.72;5110384;28;20199;-77
2023/06/13 04:53:11;;;;;;;7.87;5.90;;;;;;;16.92;100.00;98852.19;5114092;28;20191;-77
2023/06/13 04:55:40;;;;;;;8.83;5.83;;;;;;;16.84;100.00;98855.59;5108846;28;20195;-77
2023/06/13 04:58:08;;;;;;;9.60;5.47;;;;;;;16.93;100.00;98850.34;5110705;28;20207;-77
2023/06/13 05:00:38;;;;;;;8.40;5.50;;;;;;;16.97;100.00;98851.75;5113407;28;20195;-77
2023/06/13 05:03:07;;;;;;;8.73;5.80;;;;;;;17.03;100.00;98853.84;5108988;28;20208;-77
2023/06/13 05:05:36;;;;;;;7.57;5.50;;;;;;;17.09;100.00;98859.47;5078477;28;20232;-77
2023/06/13 05:08:05;;;;;;;7.50;5.30;;;;;;;17.15;100.00;98868.72;5100202;28;20199;-77
2023/06/13 05:10:33;;;;;;;8.27;5.27;;;;;;;17.37;100.00;98871.03;5108267;28;20201;-77
2023/06/13 05:13:02;;;;;;;9.87;5.27;;;;;;;17.12;100.00;98872.53;5106517;28;20202;-77
2023/06/13 05:15:30;;;;;;;12.80;5.80;;;;;;;17.46;100.00;98872.78;5113211;28;20191;-77
2023/06/13 05:18:00;;;;;;;10.80;5.13;;;;;;;17.46;100.00;98875.47;5108006;28;20199;-77
2023/06/13 05:20:30;;;;;;;8.17;5.30;;;;;;;17.55;100.00;98881.78;5113600;28;20223;-77
2023/06/13 05:23:00;;;;;;;9.63;5.50;;;;;;;17.63;100.00;98871.16;5106422;28;20653;-77
2023/06/13 05:25:29;;;;;;;6.90;5.30;;;;;;;17.66;100.00;98878.03;5100582;28;20258;-77
2023/06/13 05:27:58;;;;;;;8.37;5.33;;;;;;;17.74;100.00;98878.16;5109035;28;20662;-77
2023/06/13 05:30:26;;;;;;;10.90;5.67;;;;;;;17.95;100.00;98878.75;5105365;28;20206;-77
2023/06/13 05:32:55;;;;;;;5.87;4.63;;;;;;;18.01;100.00;98875.44;5111088;28;20213;-77
2023/06/13 05:35:24;;;;;;;7.33;5.03;;;;;;;18.16;100.00;98874.94;5107326;28;20223;-77
2023/06/13 05:37:53;;;;;;;8.40;5.03;;;;;;;18.26;100.00;98873.03;5110996;27;20661;-77
2023/06/13 05:40:21;;;;;;;7.97;4.67;;;;;;;18.41;100.00;98884.88;5109495;28;20222;-77
2023/06/13 05:42:49;;;;;;;7.07;5.60;;;;;;;18.63;100.00;98874.66;5105520;28;20721;-77
2023/06/13 05:45:20;;;;;;;5.13;4.63;;;;;;;18.50;100.00;98877.72;5105858;28;20226;-77
2023/06/13 05:47:48;;;;;;;8.10;5.30;;;;;;;18.66;100.00;98882.44;5106822;28;20226;-77
2023/06/13 05:50:16;;;;;;;7.07;4.60;;;;;;;19.03;100.00;98882.19;5107806;28;20244;-77
2023/06/13 05:52:46;;;;;;;8.17;4.90;;;;;;;19.02;100.00;98878.66;5103372;28;20270;-77
2023/06/13 05:55:15;;;;;;;5.43;4.83;;;;;;;19.10;100.00;98878.69;5109396;28;20202;-77
2023/06/13 05:57:46;;;;;;;5.90;4.67;;;;;;;18.93;100.00;98882.28;5106490;28;20199;-78
2023/06/13 06:00:15;;;;;;;6.30;4.70;;;;;;;19.24;100.00;98884.47;5111013;28;20226;-77
2023/06/13 06:02:46;;;;;;;7.57;4.90;;;;;;;19.16;100.00;98877.22;5108226;28;20297;-77
2023/06/13 06:05:15;;;;;;;5.93;4.47;;;;;;;19.20;100.00;98886.63;5103051;28;20199;-77
2023/06/13 06:07:45;;;;;;;4.83;4.30;;;;;;;19.28;99.87;98883.97;5103946;28;20359;-77
2023/06/13 06:10:15;;;;;;;7.27;4.90;;;;;;;19.55;99.08;98893.69;5106143;28;20282;-77
2023/06/13 06:12:44;;;;;;;5.13;4.63;;;;;;;19.63;96.67;98885.69;5112597;28;20187;-77
2023/06/13 06:15:12;;;;;;;5.28;4.60;;;;;;;19.83;94.80;98890.78;5110698;28;20187;-77
2023/06/13 06:17:41;;;;;;;5.78;4.50;;;;;;;19.88;93.19;98894.69;5108965;28;20198;-77
2023/06/13 06:20:10;;;;;;;6.45;4.00;;;;;;;19.95;88.20;98890.31;5111849;28;20222;-77
2023/06/13 06:22:43;;;;;;;5.80;4.53;;;;;;;20.25;86.41;98893.38;5107893;28;20195;-77
2023/06/13 06:25:20;;;;;;;5.45;4.55;;;;;;;20.46;84.57;98892.91;5108117;28;20221;-78
2023/06/13 06:27:56;;;;;;;5.70;4.47;;;;;;;20.50;78.83;98894.28;5110852;28;20194;-77
2023/06/13 06:30:25;;;;;;;5.45;4.03;;;;;;;20.39;76.00;98891.91;5111678;28;20191;-77
2023/06/13 06:32:58;;;;;;;5.05;3.95;;;;;;;20.61;75.36;98885.88;5108484;28;20210;-77
2023/06/13 06:35:26;;;;;;;7.97;3.97;;;;;;;20.61;75.45;98887.72;5108060;28;20225;-78
2023/06/13 06:37:54;;;;;;;7.18;3.97;;;;;;;20.76;73.66;98889.59;5111187;28;20199;-77
2023/06/13 06:40:25;;;;;;;6.03;3.75;;;;;;;20.66;69.57;98883.53;5108841;28;20373;-77
2023/06/13 06:42:53;;;;;;;6.53;4.10;;;;;;;20.77;66.31;98893.13;5109715;28;20195;-77
2023/06/13 06:45:22;;;;;;;6.00;3.70;;;;;;;20.88;67.88;98890.06;5109677;28;20202;-77
2023/06/13 06:47:51;;;;;;;4.20;3.60;;;;;;;20.73;63.33;98892.59;5029812;28;20236;-77
2023/06/13 06:50:20;;;;;;;5.88;3.92;;;;;;;20.99;62.89;98895.09;5029190;28;20202;-78
2023/06/13 06:52:48;;;;;;;4.70;3.38;;;;;;;21.10;61.62;98886.66;5023591;28;20322;-77
2023/06/13 06:55:16;;;;;;;4.05;3.65;;;;;;;21.17;60.81;98894.06;5022819;28;20198;-77
2023/06/13 06:57:47;;;;;;;6.97;3.53;;;;;;;21.37;62.64;98896.22;5026486;28;20201;-77
2023/06/13 07:00:17;;;;;;;4.05;3.45;;;;;;;21.39;60.22;98901.41;5033462;28;20224;-77
2023/06/13 07:02:46;;;;;;;5.93;4.13;;;;;;;21.39;60.61;98896.88;5028520;28;20201;-77
2023/06/13 07:05:15;;;;;;;4.63;3.80;;;;;;;21.49;60.25;98896.66;5038527;28;20199;-77
2023/06/13 07:07:44;;;;;;;6.95;3.70;;;;;;;21.56;62.13;98888.72;5112522;28;20198;-78
2023/06/13 07:10:12;;;;;;;5.15;3.40;;;;;;;21.40;61.36;98886.94;5111832;28;20195;-77
2023/06/13 07:12:42;;;;;;;6.22;4.00;;;;;;;21.76;61.54;98881.91;5118511;27;20266;-77
2023/06/13 07:15:12;;;;;;;5.85;3.83;;;;;;;21.95;57.22;98880.59;5113808;27;20203;-77
2023/06/13 07:17:40;;;;;;;4.47;3.80;;;;;;;21.80;54.62;98885.91;5111835;28;20228;-77
2023/06/13 07:20:11;;;;;;;5.70;3.72;;;;;;;22.03;48.42;98883.25;5067755;28;20262;-77
2023/06/13 07:22:40;;;;;;;8.02;4.03;;;;;;;21.70;49.10;98880.72;4986612;28;20671;-77
2023/06/13 07:25:09;;;;;;;5.78;3.47;;;;;;;21.97;50.85;98876.72;4990511;28;20191;-77
2023/06/13 07:27:37;;;;;;;7.82;4.05;;;;;;;21.99;50.63;98880.06;4985910;28;20203;-77
2023/06/13 07:30:07;;;;;;;6.90;4.03;;;;;;;21.75;51.76;98874.81;4986690;28;20650;-77
2023/06/13 07:32:36;;;;;;;3.97;3.58;;;;;;;22.08;50.85;98888.97;4988114;28;20195;-77
2023/06/13 07:35:06;;;;;;;5.47;3.63;;;;;;;22.11;47.67;98887.81;4989664;28;20276;-77
2023/06/13 07:37:35;;;;;;;4.97;3.55;;;;;;;21.90;48.06;98881.13;4996438;28;20201;-77
2023/06/13 07:40:07;;;;;;;6.18;3.92;;;;;;;22.04;48.09;98884.94;5042909;28;20223;-77
2023/06/13 07:42:36;;;;;;;4.65;3.53;;;;;;;22.05;48.53;98883.09;5043909;28;20208;-77
2023/06/13 07:45:06;;;;;;;5.32;3.38;;;;;;;22.17;48.38;98877.13;5045777;28;20235;-77
2023/06/13 07:47:36;;;;;;;4.75;3.95;;;;;;;22.57;50.60;98875.97;5087742;28;20412;-77
2023/06/13 07:50:06;;;;;;;6.30;3.70;;;;;;;22.59;49.07;98875.81;5112450;28;20203;-77
2023/06/13 07:52:36;;;;;;;4.55;3.50;;;;;;;22.61;47.23;98879.16;5107786;28;20218;-78
2023/06/13 07:55:05;;;;;;;4.78;3.80;;;;;;;22.71;46.72;98876.19;5107192;28;20646;-78
2023/06/13 07:57:33;;;;;;;5.22;3.88;;;;;;;22.96;48.73;98866.00;5109321;28;20191;-77
2023/06/13 08:00:24;;;;;;;4.47;3.50;;;;;;;22.68;50.57;98877.41;5114992;28;20222;-77
2023/06/13 08:02:55;;;;;;;8.20;3.70;;;;;;;22.88;47.53;98864.25;5110783;28;20714;-78
2023/06/13 08:05:26;;;;;;;5.68;3.70;;;;;;;22.55;43.83;98872.63;5114566;28;20216;-77
2023/06/13 08:07:55;;;;;;;4.57;3.80;;;;;;;22.86;44.59;98860.88;5108099;28;20191;-78
2023/06/13 08:10:25;;;;;;;7.07;4.20;;;;;;;22.91;45.43;98868.44;5108821;28;20191;-78
2023/06/13 08:12:56;;;;;;;4.15;3.70;;;;;;;23.12;42.75;98863.16;5104569;28;20195;-77
2023/06/13 08:15:24;;;;;;;6.80;3.80;;;;;;;23.17;43.15;98857.22;5106015;28;20206;-78
2023/06/13 08:17:57;;;;;;;5.68;3.92;;;;;;;23.50;43.52;98855.78;5100701;28;20202;-77
2023/06/13 08:20:26;;;;;;;7.78;3.78;;;;;;;23.78;41.82;98858.66;5048989;28;20216;-78
2023/06/13 08:22:56;;;;;;;4.03;3.67;;;;;;;23.47;41.62;98853.47;5044764;28;20306;-78
2023/06/13 08:25:24;;;;;;;5.30;3.58;;;;;;;23.84;41.86;98860.63;5045290;28;20271;-78
2023/06/13 08:27:53;;;;;;;5.90;4.15;;;;;;;23.75;41.35;98853.63;5007720;28;20256;-78
2023/06/13 08:30:21;;;;;;;5.30;3.83;;;;;;;23.78;40.97;98855.94;5002264;28;20674;-78
2023/06/13 08:32:52;;;;;;;5.75;3.45;;;;;;;23.75;37.53;98856.34;4976688;28;20252;-78
2023/06/13 08:35:22;;;;;;;4.25;3.42;;;;;;;23.88;36.84;98845.66;5003896;28;20230;-77
2023/06/13 08:37:51;;;;;;;8.52;3.90;;;;;;;23.82;37.33;98841.00;5014376;28;20205;-78
2023/06/13 08:40:19;;;;;;;5.35;3.70;;;;;;;24.06;37.01;98839.81;5060600;28;20223;-77
2023/06/13 08:42:48;;;;;;;5.72;4.07;;;;;;;23.98;36.49;98843.47;5068686;28;20192;-78
2023/06/13 08:45:17;;;;;;;5.30;3.63;;;;;;;23.88;36.47;98845.66;5071067;28;20203;-77
2023/06/13 08:47:48;;;;;;;7.35;3.65;;;;;;;24.10;37.14;98834.84;5113780;28;20199;-78
2023/06/13 08:50:24;;;;;;;8.70;3.80;;;;;;;24.16;36.35;98836.81;5107613;28;20195;-77
2023/06/13 08:52:56;;;;;;;7.78;4.18;;;;;;;24.19;36.07;98833.69;5105118;28;20199;-77
2023/06/13 08:55:25;;;;;;;5.13;3.70;;;;;;;24.30;36.07;98835.03;5102753;28;20191;-77
2023/06/13 08:57:56;;;;;;;4.32;3.85;;;;;;;24.39;36.27;98829.34;5108611;28;20243;-78
2023/06/13 09:00:25;;;;;;;7.80;4.28;;;;;;;24.20;36.20;98835.38;5102939;28;20223;-78
2023/06/13 09:02:55;;;;;;;5.78;3.33;;;;;;;24.26;35.91;98830.03;5050940;28;20228;-78
2023/06/13 09:05:25;;;;;;;10.23;6.30;;;;;;;24.27;37.08;98828.16;5041189;28;20272;-77
2023/06/13 09:07:56;;;;;;;4.93;4.10;;;;;;;24.75;36.50;98828.38;5051188;28;20287;-78
2023/06/13 09:10:45;;;;;;;6.35;4.18;;;;;;;24.60;35.46;98828.47;5069696;28;20267;-78
2023/06/13 09:13:16;;;;;;;5.43;4.07;;;;;;;24.81;35.52;98819.47;5065958;28;20196;-77
2023/06/13 09:15:46;;;;;;;6.32;5.10;;;;;;;24.89;35.83;98822.00;5064704;28;20325;-78
2023/06/13 09:18:16;;;;;;;5.03;3.97;;;;;;;25.04;36.18;98819.22;5064382;28;20184;-77
2023/06/13 09:20:44;;;;;;;4.20;3.35;;;;;;;24.95;35.14;98829.34;5079807;28;20264;-77
2023/06/13 09:23:15;;;;;;;6.32;3.50;;;;;;;24.81;35.00;98830.31;5047181;28;20196;-78
2023/06/13 09:25:46;;;;;;;6.60;3.92;;;;;;;25.05;35.94;98823.63;5046766;28;20208;-78
2023/06/13 09:28:31;;;;;;;4.55;3.45;;;;;;;25.07;35.22;98827.78;5044667;28;20204;-78
2023/06/13 09:31:01;;;;;;;6.63;3.88;;;;;;;25.16;35.53;98825.75;5042585;28;20251;-77
2023/06/13 09:33:29;;;;;;;4.35;3.63;;;;;;;25.34;36.01;98819.81;5043469;28;20209;-78
2023/06/13 09:35:58;;;;;;;5.85;3.85;;;;;;;25.51;35.45;98813.00;5042558;28;20304;-78
2023/06/13 09:38:37;;;;;;;5.90;3.95;;;;;;;25.54;34.98;98820.72;5046322;28;20304;-78
2023/06/13 09:41:05;;;;;;;4.20;3.78;;;;;;;25.49;34.56;98812.38;5072176;28;20211;-78
2023/06/13 09:43:34;;;;;;;4.93;3.45;;;;;;;25.74;34.96;98820.00;5113668;28;20244;-78
2023/06/13 09:46:03;;;;;;;8.85;3.85;;;;;;;25.79;34.55;98822.94;5113322;28;20205;-78
2023/06/13 09:48:32;;;;;;;4.32;3.83;;;;;;;25.82;34.77;98809.81;5103354;28;20213;-77
2023/06/13 09:51:06;;;;;;;4.95;3.78;;;;;;;25.78;34.44;98800.41;5113545;28;20186;-78
2023/06/13 09:53:36;;;;;;;5.53;4.03;;;;;;;26.04;34.73;98805.03;5112105;28;20213;-78
2023/06/13 09:56:08;;;;;;;6.18;3.60;;;;;;;25.72;34.52;98811.22;5108817;28;20273;-77
2023/06/13 09:58:37;;;;;;;6.88;3.58;;;;;;;25.94;34.79;98801.88;5108689;28;20224;-78
2023/06/13 10:01:06;;;;;;;5.05;3.70;;;;;;;25.82;35.33;98796.22;5111360;28;20379;-78
2023/06/13 10:03:34;;;;;;;6.20;3.83;;;;;;;26.18;34.50;98803.19;5105462;28;20230;-77
2023/06/13 10:06:02;;;;;;;7.97;3.67;;;;;;;26.59;33.91;98791.31;5110973;28;20198;-78
2023/06/13 10:08:33;;;;;;;6.03;3.85;;;;;;;26.12;34.18;98791.28;5112926;28;20654;-78
2023/06/13 10:11:08;;;;;;;3.80;3.42;;;;;;;26.53;33.61;98796.53;5111121;28;20237;-77
2023/06/13 10:13:44;;;;;;;4.05;3.67;;;;;;;26.41;32.26;98791.94;5110155;28;20186;-77
2023/06/13 10:16:14;;;;;;;8.38;4.03;;;;;;;26.38;33.33;98795.94;5110925;28;20679;-77
2023/06/13 10:18:46;;;;;;;5.63;3.85;;;;;;;26.88;34.13;98790.03;5112636;28;20362;-77
2023/06/13 10:21:16;;;;;;;4.70;3.60;;;;;;;26.95;33.51;98788.97;5107371;28;20272;-78
2023/06/13 10:23:48;;;;;;;4.05;3.65;;;;;;;26.91;34.19;98784.16;5109480;28;20194;-77
2023/06/13 10:26:27;;;;;;;5.13;3.63;;;;;;;27.33;33.30;98778.22;5102249;28;20195;-77
2023/06/13 10:29:26;;;;;;;6.15;3.70;;;;;;;26.87;34.42;98777.50;5109339;28;20205;-77
2023/06/13 10:32:08;;;;;;;3.90;3.60;;;;;;;27.41;33.19;98781.72;5082712;28;20194;-78
2023/06/13 10:34:55;;;;;;;7.53;3.78;;;;;;;26.92;33.48;98778.50;5116638;28;20278;-77
2023/06/13 10:37:44;;;;;;;6.50;4.00;;;;;;;27.43;33.54;98772.31;5112151;28;20203;-78
2023/06/13 10:40:42;;;;;;;7.13;3.90;;;;;;;27.48;33.04;98768.94;5110447;28;20195;-78
2023/06/13 10:43:19;;;;;;;4.90;3.67;;;;;;;27.69;32.52;98767.81;5112469;28;20222;-77
2023/06/13 10:45:49;;;;;;;4.47;3.38;;;;;;;27.78;32.85;98758.34;5114630;28;20205;-77
2023/06/13 10:48:31;;;;;;;6.43;3.53;;;;;;;27.79;32.94;98749.94;5112853;28;20187;-78
2023/06/13 10:51:00;;;;;;;4.97;4.03;;;;;;;28.39;32.72;98747.66;5115490;28;20274;-77
2023/06/13 10:53:28;;;;;;;5.78;3.70;;;;;;;28.01;32.32;98741.44;5115162;28;20187;-78
2023/06/13 10:56:01;;;;;;;5.53;3.80;;;;;;;28.59;32.05;98733.03;5115142;27;20202;-77
2023/06/13 10:58:31;;;;;;;5.32;3.90;;;;;;;28.84;31.49;98735.69;5116383;28;20282;-78
2023/06/13 11:01:24;;;;;;;5.80;3.95;;;;;;;28.30;31.98;98738.09;5116287;28;20203;-78
2023/06/13 11:03:52;;;;;;;4.43;3.70;;;;;;;28.30;31.93;98732.66;5116461;28;20210;-78
2023/06/13 11:06:21;;;;;;;5.30;4.25;;;;;;;28.46;31.81;98733.97;5116375;28;20342;-78
2023/06/13 11:09:09;;;;;;;5.43;3.90;;;;;;;29.06;31.10;98734.22;5112580;28;20676;-79
2023/06/13 11:11:44;;;;;;;8.00;4.15;;;;;;;29.08;31.49;98732.94;5111718;28;20202;-79
2023/06/13 11:14:14;;;;;;;4.70;4.00;;;;;;;28.57;32.01;98732.38;5107036;28;20207;-78
2023/06/13 11:16:45;;;;;;;4.60;3.60;;;;;;;29.20;31.84;98729.44;5115772;28;20201;-78
2023/06/13 11:19:15;;;;;;;7.22;3.78;;;;;;;29.50;31.99;98726.75;5110761;28;20278;-78
2023/06/13 11:21:50;;;;;;;5.97;3.78;;;;;;;29.11;32.29;98714.44;5114649;27;20223;-78
2023/06/13 11:24:20;;;;;;;5.65;4.15;;;;;;;28.93;32.37;98724.28;5104872;28;20195;-78
2023/06/13 11:26:49;;;;;;;4.50;3.55;;;;;;;29.47;31.38;98719.00;5103074;28;20248;-78
2023/06/13 11:29:20;;;;;;;6.25;4.18;;;;;;;29.94;30.84;98714.56;5108798;28;20200;-78
2023/06/13 11:31:52;;;;;;;5.22;3.88;;;;;;;29.70;31.60;98701.91;5112751;28;20656;-78
2023/06/13 11:34:26;;;;;;;5.07;3.70;;;;;;;29.74;31.72;98708.59;5114784;28;20700;-78
2023/06/13 11:37:02;;;;;;;6.88;3.78;;;;;;;29.72;30.88;98708.78;5107766;28;20203;-78
2023/06/13 11:39:37;;;;;;;6.78;3.60;;;;;;;29.43;30.67;98715.88;5104443;28;20202;-78
2023/06/13 11:42:10;;;;;;;8.15;4.15;;;;;;;28.90;30.97;98711.09;5108064;28;20260;-78
2023/06/13 11:44:40;;;;;;;5.47;3.75;;;;;;;29.60;30.05;98716.13;5109114;28;20191;-78
2023/06/13 11:47:12;;;;;;;4.55;3.38;;;;;;;29.84;30.74;98714.31;5107984;28;20679;-78